Orr, North Dakota
Current Conditions -  °F | °C
As of 10:03 PM on Tuesday 25 Nov 2014 (Local Time) from KRDR Reporting Station
Light Snow Light Snow  
Wind Chill: -4°   Ceiling: 500
Heat Index: 12°   Visibility: 4mi
Dew Point:   Wind: 15mph
Humidity: 85%   Direction: 20°NNE
Pressure: 30.1"   Gusts: NA
Location:  48.1078°N, 97.7089°W
Report Text: KRDR 260403Z AUTO 02013KT 4SM R35/5500FT -SN BR BKN005 OVC038 M11/M13 A3010 RMK AO2
Loading
Personal Weather Stations






























Interactive Weather Map New forecast layout! Learn more

10-Day Weather Forecast

Advertisements
Track Severe Weather on mobile